sensor_id;sensor_type;location;lat;lon;timestamp;P1;durP1;ratioP1;P2;durP2;ratioP2
44169;SDS011;29836;52.286;9.576;2023-03-01T00:00:46;6.63;;;3.95;;
44169;SDS011;29836;52.286;9.576;2023-03-01T00:03:11;7.57;;;2.70;;
44169;SDS011;29836;52.286;9.576;2023-03-01T00:05:43;16.13;;;4.32;;
44169;SDS011;29836;52.286;9.576;2023-03-01T00:08:10;11.32;;;4.97;;
44169;SDS011;29836;52.286;9.576;2023-03-01T00:10:35;7.70;;;3.28;;
44169;SDS011;29836;52.286;9.576;2023-03-01T00:13:01;11.35;;;4.85;;
44169;SDS011;29836;52.286;9.576;2023-03-01T00:15:27;11.05;;;5.10;;
44169;SDS011;29836;52.286;9.576;2023-03-01T00:17:52;7.38;;;3.63;;
44169;SDS011;29836;52.286;9.576;2023-03-01T00:20:18;11.30;;;4.35;;
44169;SDS011;29836;52.286;9.576;2023-03-01T00:22:43;9.73;;;4.43;;
44169;SDS011;29836;52.286;9.576;2023-03-01T00:25:09;7.80;;;3.63;;
44169;SDS011;29836;52.286;9.576;2023-03-01T00:27:34;7.65;;;4.25;;
44169;SDS011;29836;52.286;9.576;2023-03-01T00:30:00;6.50;;;3.35;;
44169;SDS011;29836;52.286;9.576;2023-03-01T00:32:26;10.50;;;4.15;;
44169;SDS011;29836;52.286;9.576;2023-03-01T00:34:51;6.55;;;3.33;;
44169;SDS011;29836;52.286;9.576;2023-03-01T00:37:20;6.85;;;3.20;;
44169;SDS011;29836;52.286;9.576;2023-03-01T00:39:46;7.53;;;3.13;;
44169;SDS011;29836;52.286;9.576;2023-03-01T00:42:12;8.32;;;4.45;;
44169;SDS011;29836;52.286;9.576;2023-03-01T00:44:38;9.43;;;4.28;;
44169;SDS011;29836;52.286;9.576;2023-03-01T00:47:03;5.40;;;3.38;;
44169;SDS011;29836;52.286;9.576;2023-03-01T00:49:29;10.23;;;4.32;;
44169;SDS011;29836;52.286;9.576;2023-03-01T00:51:54;6.70;;;3.67;;
44169;SDS011;29836;52.286;9.576;2023-03-01T00:54:20;6.70;;;3.47;;
44169;SDS011;29836;52.286;9.576;2023-03-01T00:56:45;10.18;;;4.82;;
44169;SDS011;29836;52.286;9.576;2023-03-01T00:59:11;8.52;;;3.35;;
44169;SDS011;29836;52.286;9.576;2023-03-01T01:01:36;8.88;;;3.75;;
44169;SDS011;29836;52.286;9.576;2023-03-01T01:04:04;8.60;;;4.22;;
44169;SDS011;29836;52.286;9.576;2023-03-01T01:06:32;7.28;;;3.08;;
44169;SDS011;29836;52.286;9.576;2023-03-01T01:08:59;6.38;;;3.17;;
44169;SDS011;29836;52.286;9.576;2023-03-01T01:11:26;7.82;;;3.95;;
44169;SDS011;29836;52.286;9.576;2023-03-01T01:13:53;8.93;;;3.90;;
44169;SDS011;29836;52.286;9.576;2023-03-01T01:16:19;10.43;;;3.65;;
44169;SDS011;29836;52.286;9.576;2023-03-01T01:18:47;9.60;;;4.00;;
44169;SDS011;29836;52.286;9.576;2023-03-01T01:21:15;6.45;;;4.00;;
44169;SDS011;29836;52.286;9.576;2023-03-01T01:23:42;10.70;;;4.03;;
44169;SDS011;29836;52.286;9.576;2023-03-01T01:26:19;5.50;;;2.75;;
44169;SDS011;29836;52.286;9.576;2023-03-01T01:28:46;6.78;;;2.88;;
44169;SDS011;29836;52.286;9.576;2023-03-01T01:31:12;6.15;;;3.95;;
44169;SDS011;29836;52.286;9.576;2023-03-01T01:33:38;6.78;;;4.18;;
44169;SDS011;29836;52.286;9.576;2023-03-01T01:36:05;8.52;;;2.83;;
44169;SDS011;29836;52.286;9.576;2023-03-01T01:38:31;5.78;;;3.50;;
44169;SDS011;29836;52.286;9.576;2023-03-01T01:40:57;9.95;;;3.05;;
44169;SDS011;29836;52.286;9.576;2023-03-01T01:43:30;33.25;;;4.30;;
44169;SDS011;29836;52.286;9.576;2023-03-01T01:45:59;8.50;;;3.53;;
44169;SDS011;29836;52.286;9.576;2023-03-01T01:48:32;6.22;;;2.83;;
44169;SDS011;29836;52.286;9.576;2023-03-01T01:51:13;6.70;;;2.83;;
44169;SDS011;29836;52.286;9.576;2023-03-01T01:53:47;11.02;;;3.63;;
44169;SDS011;29836;52.286;9.576;2023-03-01T01:56:20;4.78;;;2.30;;
44169;SDS011;29836;52.286;9.576;2023-03-01T01:58:47;12.02;;;3.50;;
44169;SDS011;29836;52.286;9.576;2023-03-01T02:01:14;4.72;;;2.40;;
44169;SDS011;29836;52.286;9.576;2023-03-01T02:03:40;5.15;;;2.80;;
44169;SDS011;29836;52.286;9.576;2023-03-01T02:06:18;5.30;;;2.20;;
44169;SDS011;29836;52.286;9.576;2023-03-01T02:08:57;5.82;;;3.47;;
44169;SDS011;29836;52.286;9.576;2023-03-01T02:11:25;3.97;;;2.38;;
44169;SDS011;29836;52.286;9.576;2023-03-01T02:13:52;6.07;;;2.38;;
44169;SDS011;29836;52.286;9.576;2023-03-01T02:16:19;4.63;;;1.83;;
44169;SDS011;29836;52.286;9.576;2023-03-01T02:18:45;4.75;;;2.35;;
44169;SDS011;29836;52.286;9.576;2023-03-01T02:23:50;3.78;;;2.05;;
44169;SDS011;29836;52.286;9.576;2023-03-01T02:28:46;8.75;;;2.58;;
44169;SDS011;29836;52.286;9.576;2023-03-01T02:31:14;5.50;;;2.38;;
44169;SDS011;29836;52.286;9.576;2023-03-01T02:34:02;4.03;;;1.95;;
44169;SDS011;29836;52.286;9.576;2023-03-01T02:36:30;5.50;;;2.92;;
44169;SDS011;29836;52.286;9.576;2023-03-01T02:39:03;6.03;;;2.13;;
44169;SDS011;29836;52.286;9.576;2023-03-01T02:41:39;6.40;;;2.70;;
44169;SDS011;29836;52.286;9.576;2023-03-01T02:44:07;4.45;;;2.17;;
44169;SDS011;29836;52.286;9.576;2023-03-01T02:46:33;6.30;;;2.38;;
44169;SDS011;29836;52.286;9.576;2023-03-01T02:52:11;6.50;;;3.15;;
44169;SDS011;29836;52.286;9.576;2023-03-01T02:55:08;4.70;;;2.33;;
44169;SDS011;29836;52.286;9.576;2023-03-01T02:57:36;5.80;;;2.17;;
44169;SDS011;29836;52.286;9.576;2023-03-01T03:00:05;5.03;;;2.28;;
44169;SDS011;29836;52.286;9.576;2023-03-01T03:02:33;4.32;;;2.08;;
44169;SDS011;29836;52.286;9.576;2023-03-01T03:07:33;5.10;;;2.88;;
44169;SDS011;29836;52.286;9.576;2023-03-01T03:10:03;6.25;;;2.92;;
44169;SDS011;29836;52.286;9.576;2023-03-01T03:12:29;4.28;;;2.78;;
44169;SDS011;29836;52.286;9.576;2023-03-01T03:14:55;6.28;;;3.33;;
44169;SDS011;29836;52.286;9.576;2023-03-01T03:17:20;8.65;;;3.05;;
44169;SDS011;29836;52.286;9.576;2023-03-01T03:19:46;5.63;;;2.03;;
44169;SDS011;29836;52.286;9.576;2023-03-01T03:22:12;5.68;;;2.92;;
44169;SDS011;29836;52.286;9.576;2023-03-01T03:24:37;6.47;;;2.80;;
44169;SDS011;29836;52.286;9.576;2023-03-01T03:27:03;7.28;;;3.10;;
44169;SDS011;29836;52.286;9.576;2023-03-01T03:29:29;4.50;;;2.70;;
44169;SDS011;29836;52.286;9.576;2023-03-01T03:31:55;9.50;;;2.97;;
44169;SDS011;29836;52.286;9.576;2023-03-01T03:34:20;4.38;;;2.20;;
44169;SDS011;29836;52.286;9.576;2023-03-01T03:36:46;7.60;;;2.83;;
44169;SDS011;29836;52.286;9.576;2023-03-01T03:39:11;4.47;;;2.38;;
44169;SDS011;29836;52.286;9.576;2023-03-01T03:41:37;4.43;;;2.78;;
44169;SDS011;29836;52.286;9.576;2023-03-01T03:44:02;4.38;;;2.92;;
44169;SDS011;29836;52.286;9.576;2023-03-01T03:46:28;5.20;;;2.85;;
44169;SDS011;29836;52.286;9.576;2023-03-01T03:48:54;3.78;;;2.25;;
44169;SDS011;29836;52.286;9.576;2023-03-01T03:51:19;3.45;;;2.40;;
44169;SDS011;29836;52.286;9.576;2023-03-01T03:53:47;5.88;;;3.25;;
44169;SDS011;29836;52.286;9.576;2023-03-01T03:56:13;5.68;;;2.33;;
44169;SDS011;29836;52.286;9.576;2023-03-01T03:58:38;4.53;;;2.30;;
44169;SDS011;29836;52.286;9.576;2023-03-01T04:01:04;5.07;;;2.45;;
44169;SDS011;29836;52.286;9.576;2023-03-01T04:03:30;6.68;;;2.83;;
44169;SDS011;29836;52.286;9.576;2023-03-01T04:05:57;8.43;;;3.05;;
44169;SDS011;29836;52.286;9.576;2023-03-01T04:08:24;4.47;;;2.33;;
44169;SDS011;29836;52.286;9.576;2023-03-01T04:10:50;6.45;;;2.35;;
44169;SDS011;29836;52.286;9.576;2023-03-01T04:13:21;8.10;;;2.92;;
44169;SDS011;29836;52.286;9.576;2023-03-01T04:15:48;4.28;;;2.78;;
44169;SDS011;29836;52.286;9.576;2023-03-01T04:18:16;6.57;;;2.85;;
44169;SDS011;29836;52.286;9.576;2023-03-01T04:20:44;6.82;;;2.60;;
44169;SDS011;29836;52.286;9.576;2023-03-01T04:23:14;6.55;;;2.90;;
44169;SDS011;29836;52.286;9.576;2023-03-01T04:25:46;5.45;;;2.45;;
44169;SDS011;29836;52.286;9.576;2023-03-01T04:28:29;5.88;;;2.67;;
44169;SDS011;29836;52.286;9.576;2023-03-01T04:31:04;8.50;;;3.35;;
44169;SDS011;29836;52.286;9.576;2023-03-01T04:33:44;4.38;;;2.55;;
44169;SDS011;29836;52.286;9.576;2023-03-01T04:36:12;5.82;;;2.67;;
44169;SDS011;29836;52.286;9.576;2023-03-01T04:38:39;5.93;;;2.40;;
44169;SDS011;29836;52.286;9.576;2023-03-01T04:41:06;4.97;;;2.65;;
44169;SDS011;29836;52.286;9.576;2023-03-01T04:43:32;5.28;;;2.70;;
44169;SDS011;29836;52.286;9.576;2023-03-01T04:46:09;6.18;;;2.55;;
44169;SDS011;29836;52.286;9.576;2023-03-01T04:48:37;3.88;;;2.35;;
44169;SDS011;29836;52.286;9.576;2023-03-01T04:51:03;4.45;;;2.95;;
44169;SDS011;29836;52.286;9.576;2023-03-01T04:53:30;6.40;;;1.95;;
44169;SDS011;29836;52.286;9.576;2023-03-01T04:55:57;5.28;;;2.83;;
44169;SDS011;29836;52.286;9.576;2023-03-01T04:58:23;6.05;;;2.67;;
44169;SDS011;29836;52.286;9.576;2023-03-01T05:00:50;3.95;;;2.50;;
44169;SDS011;29836;52.286;9.576;2023-03-01T05:03:16;7.10;;;3.00;;
44169;SDS011;29836;52.286;9.576;2023-03-01T05:05:45;4.97;;;3.03;;
44169;SDS011;29836;52.286;9.576;2023-03-01T05:08:12;7.15;;;3.10;;
44169;SDS011;29836;52.286;9.576;2023-03-01T05:10:42;4.10;;;2.38;;
44169;SDS011;29836;52.286;9.576;2023-03-01T05:13:10;6.13;;;2.80;;
44169;SDS011;29836;52.286;9.576;2023-03-01T05:15:38;4.63;;;2.75;;
44169;SDS011;29836;52.286;9.576;2023-03-01T05:18:04;9.55;;;2.75;;
44169;SDS011;29836;52.286;9.576;2023-03-01T05:20:32;3.50;;;2.17;;
44169;SDS011;29836;52.286;9.576;2023-03-01T05:23:01;6.80;;;2.53;;
44169;SDS011;29836;52.286;9.576;2023-03-01T05:25:30;4.10;;;2.38;;
44169;SDS011;29836;52.286;9.576;2023-03-01T05:27:58;5.18;;;2.80;;
44169;SDS011;29836;52.286;9.576;2023-03-01T05:30:24;7.30;;;2.90;;
44169;SDS011;29836;52.286;9.576;2023-03-01T05:32:50;3.45;;;2.22;;
44169;SDS011;29836;52.286;9.576;2023-03-01T05:35:20;4.93;;;2.58;;
44169;SDS011;29836;52.286;9.576;2023-03-01T05:37:47;7.68;;;3.15;;
44169;SDS011;29836;52.286;9.576;2023-03-01T05:40:15;4.75;;;3.15;;
44169;SDS011;29836;52.286;9.576;2023-03-01T05:42:46;5.47;;;2.70;;
44169;SDS011;29836;52.286;9.576;2023-03-01T05:45:14;5.28;;;2.92;;
44169;SDS011;29836;52.286;9.576;2023-03-01T05:47:41;7.97;;;2.72;;
44169;SDS011;29836;52.286;9.576;2023-03-01T05:50:19;4.70;;;2.53;;
44169;SDS011;29836;52.286;9.576;2023-03-01T05:53:12;6.28;;;2.42;;
44169;SDS011;29836;52.286;9.576;2023-03-01T05:55:40;6.40;;;2.65;;
44169;SDS011;29836;52.286;9.576;2023-03-01T05:58:07;8.73;;;3.20;;
44169;SDS011;29836;52.286;9.576;2023-03-01T06:00:43;4.95;;;2.88;;
44169;SDS011;29836;52.286;9.576;2023-03-01T06:03:37;6.28;;;3.15;;
44169;SDS011;29836;52.286;9.576;2023-03-01T06:06:28;9.35;;;3.60;;
44169;SDS011;29836;52.286;9.576;2023-03-01T06:08:55;9.15;;;3.92;;
44169;SDS011;29836;52.286;9.576;2023-03-01T06:11:20;8.05;;;3.35;;
44169;SDS011;29836;52.286;9.576;2023-03-01T06:13:46;7.13;;;3.40;;
44169;SDS011;29836;52.286;9.576;2023-03-01T06:16:12;10.38;;;3.85;;
44169;SDS011;29836;52.286;9.576;2023-03-01T06:18:38;8.50;;;4.60;;
44169;SDS011;29836;52.286;9.576;2023-03-01T06:21:05;10.32;;;5.00;;
44169;SDS011;29836;52.286;9.576;2023-03-01T06:23:31;15.07;;;4.28;;
44169;SDS011;29836;52.286;9.576;2023-03-01T06:25:57;8.18;;;3.75;;
44169;SDS011;29836;52.286;9.576;2023-03-01T06:28:23;8.48;;;3.63;;
44169;SDS011;29836;52.286;9.576;2023-03-01T06:30:49;9.88;;;4.72;;
44169;SDS011;29836;52.286;9.576;2023-03-01T06:33:15;8.30;;;4.03;;
44169;SDS011;29836;52.286;9.576;2023-03-01T06:35:40;7.88;;;3.47;;
44169;SDS011;29836;52.286;9.576;2023-03-01T06:38:06;7.22;;;3.78;;
44169;SDS011;29836;52.286;9.576;2023-03-01T06:40:32;7.07;;;3.72;;
44169;SDS011;29836;52.286;9.576;2023-03-01T06:43:00;7.28;;;4.57;;
44169;SDS011;29836;52.286;9.576;2023-03-01T06:45:26;10.38;;;5.05;;
44169;SDS011;29836;52.286;9.576;2023-03-01T06:47:52;7.40;;;4.22;;
44169;SDS011;29836;52.286;9.576;2023-03-01T06:50:17;19.58;;;4.72;;
44169;SDS011;29836;52.286;9.576;2023-03-01T06:52:43;12.07;;;5.13;;
44169;SDS011;29836;52.286;9.576;2023-03-01T06:55:10;7.30;;;3.97;;
44169;SDS011;29836;52.286;9.576;2023-03-01T06:57:36;9.07;;;4.57;;
44169;SDS011;29836;52.286;9.576;2023-03-01T07:00:03;7.10;;;3.72;;
44169;SDS011;29836;52.286;9.576;2023-03-01T07:02:29;8.23;;;3.95;;
44169;SDS011;29836;52.286;9.576;2023-03-01T07:04:55;6.03;;;3.53;;
44169;SDS011;29836;52.286;9.576;2023-03-01T07:07:20;8.93;;;4.60;;
44169;SDS011;29836;52.286;9.576;2023-03-01T07:09:48;6.57;;;3.92;;
44169;SDS011;29836;52.286;9.576;2023-03-01T07:12:14;9.63;;;5.50;;
44169;SDS011;29836;52.286;9.576;2023-03-01T07:14:39;9.38;;;5.57;;
44169;SDS011;29836;52.286;9.576;2023-03-01T07:17:05;8.07;;;4.20;;
44169;SDS011;29836;52.286;9.576;2023-03-01T07:19:31;8.50;;;4.78;;
44169;SDS011;29836;52.286;9.576;2023-03-01T07:21:56;9.40;;;4.65;;
44169;SDS011;29836;52.286;9.576;2023-03-01T07:24:22;9.18;;;3.67;;
44169;SDS011;29836;52.286;9.576;2023-03-01T07:26:48;6.68;;;3.35;;
44169;SDS011;29836;52.286;9.576;2023-03-01T07:29:15;5.40;;;3.38;;
44169;SDS011;29836;52.286;9.576;2023-03-01T07:31:40;9.57;;;3.22;;
44169;SDS011;29836;52.286;9.576;2023-03-01T07:34:06;6.45;;;3.42;;
44169;SDS011;29836;52.286;9.576;2023-03-01T07:36:31;6.65;;;3.50;;
44169;SDS011;29836;52.286;9.576;2023-03-01T07:38:57;5.20;;;3.08;;
44169;SDS011;29836;52.286;9.576;2023-03-01T07:41:23;6.90;;;3.22;;
44169;SDS011;29836;52.286;9.576;2023-03-01T07:43:48;6.93;;;3.78;;
44169;SDS011;29836;52.286;9.576;2023-03-01T07:46:14;5.97;;;3.67;;
44169;SDS011;29836;52.286;9.576;2023-03-01T07:48:40;8.23;;;3.30;;
44169;SDS011;29836;52.286;9.576;2023-03-01T07:51:06;6.13;;;4.00;;
44169;SDS011;29836;52.286;9.576;2023-03-01T07:53:33;6.50;;;3.83;;
44169;SDS011;29836;52.286;9.576;2023-03-01T07:58:29;7.78;;;4.53;;
44169;SDS011;29836;52.286;9.576;2023-03-01T08:00:55;10.38;;;4.35;;
44169;SDS011;29836;52.286;9.576;2023-03-01T08:03:20;9.63;;;4.65;;
44169;SDS011;29836;52.286;9.576;2023-03-01T08:05:46;9.32;;;4.70;;
44169;SDS011;29836;52.286;9.576;2023-03-01T08:08:11;9.55;;;5.07;;
44169;SDS011;29836;52.286;9.576;2023-03-01T08:10:37;7.60;;;4.55;;
44169;SDS011;29836;52.286;9.576;2023-03-01T08:13:02;8.55;;;4.40;;
44169;SDS011;29836;52.286;9.576;2023-03-01T08:15:28;8.77;;;5.10;;
44169;SDS011;29836;52.286;9.576;2023-03-01T08:17:53;9.65;;;4.70;;
44169;SDS011;29836;52.286;9.576;2023-03-01T08:20:19;9.77;;;4.50;;
44169;SDS011;29836;52.286;9.576;2023-03-01T08:22:44;7.70;;;4.68;;
44169;SDS011;29836;52.286;9.576;2023-03-01T08:25:10;9.80;;;4.72;;
44169;SDS011;29836;52.286;9.576;2023-03-01T08:27:36;8.00;;;4.53;;
44169;SDS011;29836;52.286;9.576;2023-03-01T08:30:01;7.95;;;4.68;;
44169;SDS011;29836;52.286;9.576;2023-03-01T08:32:27;7.65;;;4.45;;
44169;SDS011;29836;52.286;9.576;2023-03-01T08:34:53;7.32;;;4.22;;
44169;SDS011;29836;52.286;9.576;2023-03-01T08:37:18;6.75;;;4.35;;
44169;SDS011;29836;52.286;9.576;2023-03-01T08:39:44;8.10;;;4.50;;
44169;SDS011;29836;52.286;9.576;2023-03-01T08:42:09;7.22;;;4.50;;
44169;SDS011;29836;52.286;9.576;2023-03-01T08:44:35;8.63;;;4.50;;
44169;SDS011;29836;52.286;9.576;2023-03-01T08:47:00;7.97;;;4.82;;
44169;SDS011;29836;52.286;9.576;2023-03-01T08:49:27;10.98;;;4.63;;
44169;SDS011;29836;52.286;9.576;2023-03-01T08:51:52;6.78;;;4.30;;
44169;SDS011;29836;52.286;9.576;2023-03-01T08:54:19;10.57;;;4.85;;
44169;SDS011;29836;52.286;9.576;2023-03-01T08:56:46;7.13;;;3.83;;
44169;SDS011;29836;52.286;9.576;2023-03-01T08:59:13;5.38;;;3.83;;
44169;SDS011;29836;52.286;9.576;2023-03-01T09:01:40;7.60;;;3.67;;
44169;SDS011;29836;52.286;9.576;2023-03-01T09:04:08;8.15;;;4.53;;
44169;SDS011;29836;52.286;9.576;2023-03-01T09:06:34;7.18;;;3.92;;
44169;SDS011;29836;52.286;9.576;2023-03-01T09:09:00;9.73;;;4.30;;
44169;SDS011;29836;52.286;9.576;2023-03-01T09:11:27;6.88;;;3.97;;
44169;SDS011;29836;52.286;9.576;2023-03-01T09:13:53;7.07;;;4.10;;
44169;SDS011;29836;52.286;9.576;2023-03-01T09:16:19;7.25;;;3.92;;
44169;SDS011;29836;52.286;9.576;2023-03-01T09:18:48;8.13;;;4.18;;
44169;SDS011;29836;52.286;9.576;2023-03-01T09:21:18;8.90;;;3.95;;
44169;SDS011;29836;52.286;9.576;2023-03-01T09:23:46;5.40;;;3.65;;
44169;SDS011;29836;52.286;9.576;2023-03-01T09:26:13;6.30;;;3.95;;
44169;SDS011;29836;52.286;9.576;2023-03-01T09:28:44;5.75;;;3.22;;
44169;SDS011;29836;52.286;9.576;2023-03-01T09:31:10;7.22;;;3.45;;
44169;SDS011;29836;52.286;9.576;2023-03-01T09:33:40;6.88;;;3.83;;
44169;SDS011;29836;52.286;9.576;2023-03-01T09:36:07;6.85;;;3.90;;
44169;SDS011;29836;52.286;9.576;2023-03-01T09:38:35;5.82;;;3.40;;
44169;SDS011;29836;52.286;9.576;2023-03-01T09:41:01;6.45;;;3.40;;
44169;SDS011;29836;52.286;9.576;2023-03-01T09:43:43;5.22;;;3.13;;
44169;SDS011;29836;52.286;9.576;2023-03-01T09:46:18;6.05;;;3.47;;
44169;SDS011;29836;52.286;9.576;2023-03-01T09:49:01;5.85;;;2.72;;
44169;SDS011;29836;52.286;9.576;2023-03-01T09:51:30;8.90;;;3.58;;
44169;SDS011;29836;52.286;9.576;2023-03-01T09:53:58;5.47;;;3.20;;
44169;SDS011;29836;52.286;9.576;2023-03-01T09:56:33;4.70;;;2.67;;
44169;SDS011;29836;52.286;9.576;2023-03-01T10:10:34;7.43;;;3.72;;
44169;SDS011;29836;52.286;9.576;2023-03-01T10:13:04;6.97;;;3.60;;
44169;SDS011;29836;52.286;9.576;2023-03-01T10:15:50;6.72;;;3.55;;
44169;SDS011;29836;52.286;9.576;2023-03-01T10:18:27;5.55;;;3.00;;
44169;SDS011;29836;52.286;9.576;2023-03-01T10:20:57;7.05;;;3.60;;
44169;SDS011;29836;52.286;9.576;2023-03-01T10:23:26;6.68;;;3.53;;
44169;SDS011;29836;52.286;9.576;2023-03-01T10:28:54;6.30;;;3.67;;
44169;SDS011;29836;52.286;9.576;2023-03-01T10:31:30;7.60;;;3.50;;
44169;SDS011;29836;52.286;9.576;2023-03-01T10:34:01;6.05;;;3.78;;
44169;SDS011;29836;52.286;9.576;2023-03-01T10:36:29;6.82;;;3.58;;
44169;SDS011;29836;52.286;9.576;2023-03-01T10:38:58;7.35;;;3.53;;
44169;SDS011;29836;52.286;9.576;2023-03-01T10:41:24;6.55;;;3.38;;
44169;SDS011;29836;52.286;9.576;2023-03-01T10:43:53;7.78;;;3.70;;
44169;SDS011;29836;52.286;9.576;2023-03-01T10:51:43;5.55;;;2.83;;
44169;SDS011;29836;52.286;9.576;2023-03-01T10:54:30;6.60;;;3.60;;
44169;SDS011;29836;52.286;9.576;2023-03-01T10:56:58;7.07;;;3.20;;
44169;SDS011;29836;52.286;9.576;2023-03-01T11:04:59;6.20;;;3.00;;
44169;SDS011;29836;52.286;9.576;2023-03-01T11:07:47;5.82;;;3.03;;
44169;SDS011;29836;52.286;9.576;2023-03-01T11:10:18;11.20;;;3.53;;
44169;SDS011;29836;52.286;9.576;2023-03-01T11:12:46;6.22;;;3.20;;
44169;SDS011;29836;52.286;9.576;2023-03-01T11:15:27;7.97;;;3.42;;
44169;SDS011;29836;52.286;9.576;2023-03-01T11:17:53;9.77;;;3.08;;
44169;SDS011;29836;52.286;9.576;2023-03-01T11:20:24;5.97;;;3.13;;
44169;SDS011;29836;52.286;9.576;2023-03-01T11:22:59;7.03;;;2.97;;
44169;SDS011;29836;52.286;9.576;2023-03-01T11:25:31;7.55;;;3.10;;
44169;SDS011;29836;52.286;9.576;2023-03-01T11:28:01;4.53;;;2.33;;
44169;SDS011;29836;52.286;9.576;2023-03-01T11:35:47;6.03;;;2.70;;
44169;SDS011;29836;52.286;9.576;2023-03-01T11:38:23;5.28;;;2.65;;
44169;SDS011;29836;52.286;9.576;2023-03-01T11:40:52;4.80;;;2.20;;
44169;SDS011;29836;52.286;9.576;2023-03-01T11:51:37;5.75;;;2.50;;
44169;SDS011;29836;52.286;9.576;2023-03-01T11:57:20;5.95;;;2.58;;
44169;SDS011;29836;52.286;9.576;2023-03-01T12:08:21;4.10;;;2.35;;
44169;SDS011;29836;52.286;9.576;2023-03-01T12:18:39;5.70;;;2.22;;
44169;SDS011;29836;52.286;9.576;2023-03-01T12:26:29;5.80;;;2.28;;
44169;SDS011;29836;52.286;9.576;2023-03-01T12:46:01;4.47;;;2.38;;
44169;SDS011;29836;52.286;9.576;2023-03-01T12:49:04;3.50;;;2.22;;
44169;SDS011;29836;52.286;9.576;2023-03-01T12:51:37;6.22;;;2.20;;
44169;SDS011;29836;52.286;9.576;2023-03-01T12:54:07;4.57;;;2.10;;
44169;SDS011;29836;52.286;9.576;2023-03-01T12:56:40;4.70;;;2.55;;
44169;SDS011;29836;52.286;9.576;2023-03-01T12:59:09;3.88;;;2.47;;
44169;SDS011;29836;52.286;9.576;2023-03-01T13:01:42;4.43;;;2.08;;
44169;SDS011;29836;52.286;9.576;2023-03-01T13:04:19;4.25;;;1.88;;
44169;SDS011;29836;52.286;9.576;2023-03-01T13:07:04;3.10;;;2.00;;
44169;SDS011;29836;52.286;9.576;2023-03-01T13:20:29;5.18;;;2.10;;
44169;SDS011;29836;52.286;9.576;2023-03-01T13:23:06;4.78;;;2.05;;
44169;SDS011;29836;52.286;9.576;2023-03-01T13:25:32;3.85;;;1.80;;
44169;SDS011;29836;52.286;9.576;2023-03-01T13:31:01;5.60;;;2.03;;
44169;SDS011;29836;52.286;9.576;2023-03-01T13:35:55;3.45;;;2.05;;
44169;SDS011;29836;52.286;9.576;2023-03-01T13:38:37;5.30;;;2.20;;
44169;SDS011;29836;52.286;9.576;2023-03-01T13:41:11;5.03;;;1.85;;
44169;SDS011;29836;52.286;9.576;2023-03-01T13:43:40;4.82;;;2.53;;
44169;SDS011;29836;52.286;9.576;2023-03-01T13:49:03;2.65;;;1.88;;
44169;SDS011;29836;52.286;9.576;2023-03-01T13:51:28;4.35;;;1.90;;
44169;SDS011;29836;52.286;9.576;2023-03-01T13:53:55;3.10;;;1.80;;
44169;SDS011;29836;52.286;9.576;2023-03-01T13:56:26;4.30;;;1.55;;
44169;SDS011;29836;52.286;9.576;2023-03-01T14:01:24;4.40;;;1.75;;
44169;SDS011;29836;52.286;9.576;2023-03-01T14:03:58;3.70;;;2.03;;
44169;SDS011;29836;52.286;9.576;2023-03-01T14:06:25;4.45;;;1.95;;
44169;SDS011;29836;52.286;9.576;2023-03-01T14:09:03;2.17;;;1.40;;
44169;SDS011;29836;52.286;9.576;2023-03-01T14:11:37;3.83;;;1.48;;
44169;SDS011;29836;52.286;9.576;2023-03-01T14:14:29;4.07;;;1.80;;
44169;SDS011;29836;52.286;9.576;2023-03-01T14:17:30;3.10;;;1.52;;
44169;SDS011;29836;52.286;9.576;2023-03-01T14:20:11;4.05;;;1.52;;
44169;SDS011;29836;52.286;9.576;2023-03-01T14:22:41;8.75;;;1.83;;
44169;SDS011;29836;52.286;9.576;2023-03-01T14:25:25;3.60;;;1.90;;
44169;SDS011;29836;52.286;9.576;2023-03-01T14:27:57;3.85;;;1.60;;
44169;SDS011;29836;52.286;9.576;2023-03-01T14:30:41;3.07;;;1.80;;
44169;SDS011;29836;52.286;9.576;2023-03-01T14:43:45;1.98;;;1.30;;
44169;SDS011;29836;52.286;9.576;2023-03-01T14:48:50;2.38;;;1.20;;
44169;SDS011;29836;52.286;9.576;2023-03-01T14:51:17;4.25;;;1.70;;
44169;SDS011;29836;52.286;9.576;2023-03-01T14:53:43;4.50;;;1.42;;
44169;SDS011;29836;52.286;9.576;2023-03-01T14:56:13;6.03;;;1.85;;
44169;SDS011;29836;52.286;9.576;2023-03-01T14:58:42;2.97;;;1.35;;
44169;SDS011;29836;52.286;9.576;2023-03-01T15:01:10;3.72;;;1.70;;
44169;SDS011;29836;52.286;9.576;2023-03-01T15:03:43;3.17;;;1.40;;
44169;SDS011;29836;52.286;9.576;2023-03-01T15:06:11;3.70;;;1.50;;
44169;SDS011;29836;52.286;9.576;2023-03-01T15:08:42;5.47;;;1.50;;
44169;SDS011;29836;52.286;9.576;2023-03-01T15:11:18;3.47;;;1.70;;
44169;SDS011;29836;52.286;9.576;2023-03-01T15:13:49;2.60;;;1.27;;
44169;SDS011;29836;52.286;9.576;2023-03-01T15:16:20;2.40;;;1.38;;
44169;SDS011;29836;52.286;9.576;2023-03-01T15:18:57;2.75;;;1.35;;
44169;SDS011;29836;52.286;9.576;2023-03-01T15:21:25;2.63;;;1.33;;
44169;SDS011;29836;52.286;9.576;2023-03-01T15:24:05;2.50;;;1.35;;
44169;SDS011;29836;52.286;9.576;2023-03-01T15:26:52;3.40;;;1.67;;
44169;SDS011;29836;52.286;9.576;2023-03-01T15:29:21;3.40;;;1.67;;
44169;SDS011;29836;52.286;9.576;2023-03-01T15:34:24;3.47;;;1.20;;
44169;SDS011;29836;52.286;9.576;2023-03-01T15:36:51;3.90;;;1.80;;
44169;SDS011;29836;52.286;9.576;2023-03-01T15:42:04;2.43;;;1.50;;
44169;SDS011;29836;52.286;9.576;2023-03-01T15:44:39;2.17;;;1.38;;
44169;SDS011;29836;52.286;9.576;2023-03-01T15:50:05;4.50;;;1.33;;
44169;SDS011;29836;52.286;9.576;2023-03-01T15:52:47;5.00;;;1.52;;
44169;SDS011;29836;52.286;9.576;2023-03-01T15:55:16;4.28;;;1.65;;
44169;SDS011;29836;52.286;9.576;2023-03-01T15:57:46;5.25;;;1.77;;
44169;SDS011;29836;52.286;9.576;2023-03-01T16:00:13;3.60;;;1.83;;
44169;SDS011;29836;52.286;9.576;2023-03-01T16:02:40;3.05;;;1.60;;
44169;SDS011;29836;52.286;9.576;2023-03-01T16:07:53;3.75;;;1.67;;
44169;SDS011;29836;52.286;9.576;2023-03-01T16:10:20;2.63;;;1.52;;
44169;SDS011;29836;52.286;9.576;2023-03-01T16:12:46;3.97;;;1.33;;
44169;SDS011;29836;52.286;9.576;2023-03-01T16:17:46;2.80;;;1.10;;
44169;SDS011;29836;52.286;9.576;2023-03-01T16:20:12;3.08;;;1.45;;
44169;SDS011;29836;52.286;9.576;2023-03-01T16:22:40;3.55;;;1.88;;
44169;SDS011;29836;52.286;9.576;2023-03-01T16:25:08;3.85;;;1.20;;
44169;SDS011;29836;52.286;9.576;2023-03-01T16:27:35;3.40;;;1.85;;
44169;SDS011;29836;52.286;9.576;2023-03-01T16:30:00;2.90;;;1.55;;
44169;SDS011;29836;52.286;9.576;2023-03-01T16:32:26;3.75;;;2.03;;
44169;SDS011;29836;52.286;9.576;2023-03-01T16:34:51;3.75;;;1.23;;
44169;SDS011;29836;52.286;9.576;2023-03-01T16:37:17;3.97;;;1.42;;
44169;SDS011;29836;52.286;9.576;2023-03-01T16:39:44;4.32;;;1.60;;
44169;SDS011;29836;52.286;9.576;2023-03-01T16:42:09;3.80;;;1.55;;
44169;SDS011;29836;52.286;9.576;2023-03-01T16:44:35;3.33;;;1.33;;
44169;SDS011;29836;52.286;9.576;2023-03-01T16:47:00;3.55;;;1.20;;
44169;SDS011;29836;52.286;9.576;2023-03-01T16:49:26;5.43;;;1.77;;
44169;SDS011;29836;52.286;9.576;2023-03-01T16:51:53;2.85;;;1.20;;
44169;SDS011;29836;52.286;9.576;2023-03-01T16:54:18;4.75;;;1.20;;
44169;SDS011;29836;52.286;9.576;2023-03-01T16:56:44;2.10;;;1.20;;
44169;SDS011;29836;52.286;9.576;2023-03-01T16:59:09;10.70;;;1.98;;
44169;SDS011;29836;52.286;9.576;2023-03-01T17:01:35;8.45;;;3.47;;
44169;SDS011;29836;52.286;9.576;2023-03-01T17:04:05;9.75;;;3.45;;
44169;SDS011;29836;52.286;9.576;2023-03-01T17:06:31;6.78;;;2.40;;
44169;SDS011;29836;52.286;9.576;2023-03-01T17:08:57;7.07;;;2.13;;
44169;SDS011;29836;52.286;9.576;2023-03-01T17:11:23;5.10;;;1.88;;
44169;SDS011;29836;52.286;9.576;2023-03-01T17:13:49;3.47;;;1.80;;
44169;SDS011;29836;52.286;9.576;2023-03-01T17:16:16;4.68;;;2.08;;
44169;SDS011;29836;52.286;9.576;2023-03-01T17:18:43;5.00;;;2.17;;
44169;SDS011;29836;52.286;9.576;2023-03-01T17:21:09;4.25;;;2.25;;